Time;durP1;ratioP1;P1;durP2;ratioP2;P2;SDS_P1;SDS_P2;PMS_P1;PMS_P2;Temp;Humidity;BMP_temperature;BMP_pressure;BME280_temperature;BME280_humidity;BME280_pressure;Samples;Min_cycle;Max_cycle;Signal;HPM_P1;HPM_P2
2021/08/14 00:00:26;;;;;;;4.43;2.45;;;;;;;16.25;73.11;100984.34;6145311;23;20084;-73
2021/08/14 00:03:16;;;;;;;3.35;2.38;;;;;;;16.17;73.11;100981.09;6139962;23;20091;-74
2021/08/14 00:05:42;;;;;;;3.45;2.60;;;;;;;16.18;73.68;100987.44;6163963;23;20036;-72
2021/08/14 00:08:09;;;;;;;3.10;2.80;;;;;;;16.13;73.62;100979.19;6114691;23;20020;-75
2021/08/14 00:10:51;;;;;;;3.17;2.63;;;;;;;16.15;73.43;100977.81;6143342;23;20020;-76
2021/08/14 00:16:57;;;;;;;2.20;2.05;;;;;;;15.97;73.83;100964.72;6155308;23;20044;-76
2021/08/14 00:19:23;;;;;;;4.22;2.55;;;;;;;15.95;73.89;100956.75;6163302;23;20009;-75
2021/08/14 00:22:10;;;;;;;6.63;2.38;;;;;;;15.96;73.98;100965.81;6187413;23;20032;-75
2021/08/14 00:24:36;;;;;;;3.22;2.20;;;;;;;15.94;74.15;100976.34;6161251;23;20009;-75
2021/08/14 00:27:52;;;;;;;3.25;2.35;;;;;;;15.93;73.80;100970.00;6189158;23;20017;-75
2021/08/14 00:30:18;;;;;;;2.90;2.35;;;;;;;15.84;74.11;100961.53;6183048;23;20429;-77
2021/08/14 00:33:23;;;;;;;2.40;2.17;;;;;;;15.81;74.31;100956.59;6164503;23;20048;-76
2021/08/14 00:36:57;;;;;;;4.00;2.10;;;;;;;15.86;74.57;100959.28;6161787;23;20001;-75
2021/08/14 00:39:44;;;;;;;4.63;2.63;;;;;;;15.83;74.50;100965.38;6187426;23;20020;-76
2021/08/14 00:42:09;;;;;;;2.70;2.50;;;;;;;15.79;74.57;100960.75;6162937;23;20013;-76
2021/08/14 00:44:35;;;;;;;2.95;2.35;;;;;;;15.78;74.48;100956.31;6165638;23;20155;-76
2021/08/14 00:47:05;;;;;;;4.63;2.72;;;;;;;15.82;74.78;100952.69;6161680;23;20032;-75
2021/08/14 00:49:30;;;;;;;2.72;2.53;;;;;;;15.77;75.10;100947.22;6189395;23;20005;-74
2021/08/14 00:51:56;;;;;;;3.03;2.30;;;;;;;15.80;74.92;100954.94;6161377;23;20028;-74
2021/08/14 00:54:21;;;;;;;2.72;2.13;;;;;;;15.79;74.69;100946.97;6189664;23;20443;-75
2021/08/14 00:56:48;;;;;;;2.08;1.88;;;;;;;15.75;74.96;100946.66;6187370;23;20009;-76
2021/08/14 00:59:13;;;;;;;3.45;1.85;;;;;;;15.74;75.03;100945.03;6186528;23;20004;-73
2021/08/14 01:01:39;;;;;;;2.33;2.03;;;;;;;15.68;74.79;100940.66;6161173;23;20418;-75
2021/08/14 01:04:05;;;;;;;2.13;1.48;;;;;;;15.67;74.88;100945.34;6186969;23;20009;-75
2021/08/14 01:06:30;;;;;;;4.00;2.03;;;;;;;15.63;74.84;100932.44;6162794;23;19993;-76
2021/08/14 01:08:58;;;;;;;2.75;1.58;;;;;;;15.61;74.96;100935.47;6187016;23;20013;-75
2021/08/14 01:11:25;;;;;;;1.70;1.60;;;;;;;15.57;74.67;100931.66;6163547;23;20340;-75
2021/08/14 01:13:51;;;;;;;4.20;1.55;;;;;;;15.53;74.66;100934.16;6187515;23;20005;-75
2021/08/14 01:16:16;;;;;;;2.00;1.23;;;;;;;15.52;74.87;100929.75;6189717;23;20056;-75
2021/08/14 01:18:45;;;;;;;2.53;1.60;;;;;;;15.50;75.12;100923.69;6188633;23;20408;-75
2021/08/14 01:21:18;;;;;;;1.48;1.38;;;;;;;15.48;75.19;100923.16;6189287;23;20011;-74
2021/08/14 01:23:45;;;;;;;1.25;1.25;;;;;;;15.44;74.84;100924.03;6186508;23;20026;-75
2021/08/14 01:26:12;;;;;;;1.25;1.00;;;;;;;15.44;74.77;100924.84;6159705;23;20009;-74
2021/08/14 01:28:39;;;;;;;1.98;1.30;;;;;;;15.43;75.09;100922.38;6139576;23;20020;-75
2021/08/14 01:31:06;;;;;;;1.98;1.77;;;;;;;15.44;74.82;100924.84;6190514;23;20009;-73
2021/08/14 01:33:34;;;;;;;1.67;1.30;;;;;;;15.44;75.01;100926.78;6189073;23;20108;-75
2021/08/14 01:36:00;;;;;;;1.73;1.63;;;;;;;15.46;74.72;100925.41;6162864;23;20031;-75
2021/08/14 01:38:26;;;;;;;1.77;1.45;;;;;;;15.42;75.01;100921.56;6188198;23;20016;-74
2021/08/14 01:40:51;;;;;;;2.58;1.85;;;;;;;15.43;74.98;100931.47;6138693;23;20008;-75
2021/08/14 01:43:17;;;;;;;2.25;1.95;;;;;;;15.44;75.28;100922.09;6164699;23;20021;-75
2021/08/14 01:45:42;;;;;;;3.67;2.17;;;;;;;15.43;75.26;100920.44;6186802;23;20009;-75
2021/08/14 01:48:09;;;;;;;5.35;3.10;;;;;;;15.39;75.50;100916.63;6189137;23;20028;-74
2021/08/14 01:50:34;;;;;;;6.78;2.95;;;;;;;15.39;75.73;100922.16;6187968;23;20009;-74
2021/08/14 01:53:00;;;;;;;3.97;2.67;;;;;;;15.35;75.65;100921.06;6137295;23;20004;-74
2021/08/14 01:55:41;;;;;;;11.65;3.72;;;;;;;15.33;76.03;100913.09;6190124;23;20001;-75
2021/08/14 01:58:28;;;;;;;7.78;3.40;;;;;;;15.30;75.77;100913.66;6143018;23;20009;-74
2021/08/14 02:00:55;;;;;;;5.38;2.60;;;;;;;15.27;76.11;100918.91;6119580;23;20025;-73
2021/08/14 02:03:21;;;;;;;8.30;3.35;;;;;;;15.23;76.77;100920.59;6163056;23;20056;-73
2021/08/14 02:05:46;;;;;;;3.47;2.42;;;;;;;15.21;76.57;100917.31;6188565;23;20411;-72
2021/08/14 02:08:11;;;;;;;1.85;1.75;;;;;;;15.20;76.56;100916.50;6161953;23;20281;-72
2021/08/14 02:10:37;;;;;;;4.15;2.60;;;;;;;15.18;76.41;100921.44;6164088;23;20021;-73
2021/08/14 02:13:10;;;;;;;4.53;2.67;;;;;;;15.18;76.57;100926.94;6189227;23;20381;-72
2021/08/14 02:16:13;;;;;;;5.95;3.60;;;;;;;15.12;76.76;100908.81;6186499;23;20005;-74
2021/08/14 02:19:26;;;;;;;5.80;3.00;;;;;;;15.18;76.85;100910.41;6177239;23;20013;-74
2021/08/14 02:21:52;;;;;;;5.80;3.25;;;;;;;15.12;77.04;100906.88;6182257;23;20013;-73
2021/08/14 02:24:17;;;;;;;10.63;3.17;;;;;;;15.13;77.44;100902.22;6187465;23;20444;-74
2021/08/14 02:26:43;;;;;;;11.00;3.50;;;;;;;15.15;77.50;100906.31;6134574;23;20038;-72
2021/08/14 02:29:08;;;;;;;10.13;3.15;;;;;;;15.14;77.59;100898.31;6163147;23;20013;-74
2021/08/14 02:31:34;;;;;;;3.58;3.28;;;;;;;15.21;78.17;100898.84;6190900;23;20058;-72
2021/08/14 02:33:59;;;;;;;9.75;3.50;;;;;;;15.28;78.01;100893.00;6190481;23;20016;-74
2021/08/14 02:36:25;;;;;;;6.53;3.58;;;;;;;15.33;78.58;100896.56;6190324;23;19997;-74
2021/08/14 02:38:51;;;;;;;5.95;3.55;;;;;;;15.40;78.11;100896.22;6190045;23;20052;-74
2021/08/14 02:41:16;;;;;;;7.50;3.38;;;;;;;15.43;78.28;100895.63;6158820;23;20324;-73
2021/08/14 02:43:42;;;;;;;7.05;3.38;;;;;;;15.51;78.19;100892.28;6161445;23;20064;-72
2021/08/14 02:46:07;;;;;;;4.88;2.80;;;;;;;15.59;78.14;100890.03;6185237;23;20005;-73
2021/08/14 02:48:33;;;;;;;6.03;3.63;;;;;;;15.63;78.20;100888.34;6184671;23;20011;-73
2021/08/14 02:50:59;;;;;;;6.50;3.33;;;;;;;15.66;78.14;100879.47;6190361;23;20080;-74
2021/08/14 02:53:24;;;;;;;8.50;4.13;;;;;;;15.69;77.97;100881.66;6186619;23;20431;-74
2021/08/14 02:55:50;;;;;;;5.20;2.92;;;;;;;15.73;78.27;100882.72;6189573;23;20009;-74
2021/08/14 02:58:15;;;;;;;4.75;2.42;;;;;;;15.78;78.18;100881.84;6165033;23;20012;-73
2021/08/14 03:00:41;;;;;;;3.35;2.60;;;;;;;15.81;77.85;100884.06;6191091;23;20005;-73
2021/08/14 03:03:06;;;;;;;4.43;2.22;;;;;;;15.78;77.45;100874.44;6190126;23;20028;-74
2021/08/14 03:05:32;;;;;;;1.75;1.65;;;;;;;15.72;77.65;100881.06;6162997;23;20013;-72
2021/08/14 03:07:57;;;;;;;4.88;1.95;;;;;;;15.66;77.44;100883.06;6188182;23;20051;-74
2021/08/14 03:10:23;;;;;;;2.22;1.70;;;;;;;15.60;77.15;100872.38;6191108;23;20040;-73
2021/08/14 03:12:49;;;;;;;7.50;2.08;;;;;;;15.57;77.42;100878.47;6183954;23;20444;-74
2021/08/14 03:15:15;;;;;;;2.50;2.13;;;;;;;15.48;77.03;100878.25;6192839;23;20439;-73
2021/08/14 03:17:40;;;;;;;2.15;1.98;;;;;;;15.42;77.08;100877.47;6187429;23;20025;-73
2021/08/14 03:20:22;;;;;;;2.15;1.83;;;;;;;15.30;77.24;100864.06;6190231;23;20001;-73
2021/08/14 03:22:49;;;;;;;3.75;2.30;;;;;;;15.27;77.00;100874.81;6188179;23;20300;-75
2021/08/14 03:25:14;;;;;;;1.98;1.88;;;;;;;15.18;77.25;100874.63;6162759;23;20009;-75
2021/08/14 03:27:40;;;;;;;2.10;1.88;;;;;;;15.10;77.15;100875.22;6191820;23;20077;-75
2021/08/14 03:30:06;;;;;;;2.78;1.95;;;;;;;15.06;76.42;100871.41;6163315;23;20016;-73
2021/08/14 03:32:32;;;;;;;4.35;2.70;;;;;;;14.97;76.98;100877.50;6189858;23;20051;-73
2021/08/14 03:34:57;;;;;;;4.75;2.03;;;;;;;14.95;76.90;100881.63;6163283;23;20017;-74
2021/08/14 03:37:23;;;;;;;2.22;2.10;;;;;;;14.89;77.33;100871.75;6163047;23;20060;-73
2021/08/14 03:39:48;;;;;;;2.40;1.77;;;;;;;14.88;77.15;100878.38;6190096;23;20004;-73
2021/08/14 03:42:14;;;;;;;2.58;1.88;;;;;;;14.86;76.87;100869.59;6167408;23;20016;-73
2021/08/14 03:44:39;;;;;;;1.77;1.50;;;;;;;14.82;76.96;100875.66;6164250;23;20013;-73
2021/08/14 03:47:05;;;;;;;2.22;2.13;;;;;;;14.81;77.56;100885.03;6140223;23;20016;-76
2021/08/14 03:49:30;;;;;;;2.03;1.92;;;;;;;14.82;77.30;100883.06;6191395;23;20008;-75
2021/08/14 03:51:56;;;;;;;2.15;1.92;;;;;;;14.77;77.25;100878.44;6163440;23;20017;-75
2021/08/14 03:54:21;;;;;;;2.00;1.70;;;;;;;14.76;77.31;100882.31;6193920;23;20016;-75
2021/08/14 03:56:47;;;;;;;2.35;1.73;;;;;;;14.75;77.26;100880.66;6140731;23;19993;-73
2021/08/14 03:59:12;;;;;;;5.50;1.95;;;;;;;14.73;77.64;100871.84;6191747;23;20009;-74
2021/08/14 04:01:39;;;;;;;1.85;1.52;;;;;;;14.73;77.37;100876.53;6189743;23;20075;-74
2021/08/14 04:04:04;;;;;;;1.48;1.33;;;;;;;14.70;77.36;100872.41;6191097;23;20009;-74
2021/08/14 04:06:30;;;;;;;1.58;1.48;;;;;;;14.69;77.57;100865.28;6139922;23;20005;-77
2021/08/14 04:08:55;;;;;;;1.17;1.00;;;;;;;14.71;77.13;100857.53;6165444;23;20036;-75
2021/08/14 04:11:21;;;;;;;1.10;1.10;;;;;;;14.75;77.43;100852.31;6142093;23;20005;-75
2021/08/14 04:13:46;;;;;;;2.38;1.65;;;;;;;14.80;77.54;100858.59;6166819;23;20016;-76
2021/08/14 04:16:13;;;;;;;4.32;2.17;;;;;;;14.89;77.53;100863.50;6191622;23;20048;-75
2021/08/14 04:22:02;;;;;;;2.08;1.38;;;;;;;14.98;77.43;100859.03;6087630;23;20252;-74
2021/08/14 04:24:28;;;;;;;2.25;2.05;;;;;;;14.95;77.21;100851.34;6193503;23;20070;-74
2021/08/14 04:27:15;;;;;;;2.35;2.25;;;;;;;15.07;76.97;100871.13;6171183;23;20005;-75
2021/08/14 04:30:23;;;;;;;3.75;2.17;;;;;;;15.10;76.99;100870.53;6174457;23;20004;-74
2021/08/14 04:32:51;;;;;;;2.20;2.00;;;;;;;15.06;77.34;100866.72;6196897;23;20020;-73
2021/08/14 04:36:12;;;;;;;3.17;2.95;;;;;;;15.04;76.92;100865.34;6179489;23;20111;-74
2021/08/14 04:39:19;;;;;;;3.28;2.97;;;;;;;14.76;77.18;100843.78;6192434;23;20029;-73
2021/08/14 04:42:04;;;;;;;;;;;;;;;;;;;;;
2021/08/14 04:45:32;;;;;;;;;;;;;;;;;;;;;
2021/08/14 04:47:57;;;;;;;2.72;1.80;;;;;;;14.79;78.82;100845.09;6175753;23;20032;-73
2021/08/14 04:50:40;;;;;;;3.88;2.53;;;;;;;15.00;78.78;100867.84;6193028;23;19997;-74
2021/08/14 04:53:06;;;;;;;4.30;2.65;;;;;;;15.01;78.51;100861.25;6164462;23;20356;-75
2021/08/14 04:55:57;;;;;;;;;;;;;;;;;;;;;
2021/08/14 04:59:09;;;;;;;3.35;2.05;;;;;;;15.26;78.66;100871.25;6191658;23;20021;-76
2021/08/14 05:02:09;;;;;;;5.88;2.40;;;;;;;15.32;78.50;100877.56;6191838;23;20004;-74
2021/08/14 05:05:07;;;;;;;4.93;2.45;;;;;;;15.19;78.24;100860.56;6191678;23;20004;-76
2021/08/14 05:07:36;;;;;;;2.00;1.73;;;;;;;15.29;78.27;100867.94;6138754;23;20088;-73
2021/08/14 05:10:32;;;;;;;1.88;1.48;;;;;;;15.34;78.36;100864.31;6190194;23;20136;-75
2021/08/14 05:13:15;;;;;;;2.58;2.38;;;;;;;15.41;78.32;100866.75;6188522;23;20013;-74
2021/08/14 05:15:53;;;;;;;;;;;;;;;;;;;;;
2021/08/14 05:18:18;;;;;;;1.25;1.15;;;;;;;15.53;78.64;100868.00;6191085;23;20025;-74
2021/08/14 05:20:44;;;;;;;1.20;1.20;;;;;;;15.60;78.22;100866.88;6190972;23;20344;-71
2021/08/14 05:23:09;;;;;;;1.25;1.20;;;;;;;15.65;78.39;100870.41;6138592;23;20016;-73
2021/08/14 05:25:35;;;;;;;1.15;1.15;;;;;;;15.69;78.33;100857.66;6163543;23;20577;-72
2021/08/14 05:28:00;;;;;;;2.13;1.33;;;;;;;15.75;78.54;100863.94;6163496;23;20025;-73
2021/08/14 05:30:26;;;;;;;2.70;2.55;;;;;;;15.77;78.57;100861.75;6188805;23;20005;-73
2021/08/14 05:32:51;;;;;;;2.92;2.70;;;;;;;15.81;78.42;100871.13;6189144;23;20008;-72
2021/08/14 05:35:17;;;;;;;1.80;1.70;;;;;;;15.87;78.49;100875.47;6191279;23;20020;-74
2021/08/14 05:37:43;;;;;;;2.78;2.42;;;;;;;15.97;78.51;100877.28;6188168;23;20001;-73
2021/08/14 05:40:09;;;;;;;2.17;1.90;;;;;;;16.04;78.23;100876.94;6190916;23;20009;-73
2021/08/14 05:42:34;;;;;;;2.45;2.30;;;;;;;16.15;78.08;100878.47;6162937;23;20012;-74
2021/08/14 05:45:00;;;;;;;2.45;2.35;;;;;;;16.21;78.06;100882.00;6189660;23;20011;-74
2021/08/14 05:47:25;;;;;;;2.00;1.90;;;;;;;16.27;77.97;100880.03;6189311;23;20009;-73
2021/08/14 05:49:51;;;;;;;2.42;2.22;;;;;;;16.32;78.30;100888.22;6190197;23;20085;-73
2021/08/14 05:52:16;;;;;;;6.00;3.10;;;;;;;16.39;77.93;100889.50;6190426;23;20408;-73
2021/08/14 05:54:54;;;;;;;2.97;1.90;;;;;;;16.45;78.07;100884.75;6162454;23;20004;-74
2021/08/14 05:57:23;;;;;;;1.45;1.35;;;;;;;16.51;77.67;100883.56;6143167;23;20009;-74
2021/08/14 06:03:34;;;;;;;1.95;1.85;;;;;;;16.79;77.60;100903.09;6191698;23;20040;-73
2021/08/14 06:06:47;;;;;;;2.28;2.17;;;;;;;16.86;77.46;100898.03;6190796;23;20008;-76
2021/08/14 06:09:12;;;;;;;2.70;2.30;;;;;;;16.89;77.61;100891.13;6188818;23;20033;-75
2021/08/14 06:11:40;;;;;;;4.93;2.40;;;;;;;17.00;77.83;100891.84;6190593;23;20013;-75
2021/08/14 06:14:20;;;;;;;4.32;3.05;;;;;;;17.16;77.20;100896.00;6162945;23;20009;-76
2021/08/14 06:17:08;;;;;;;3.35;2.38;;;;;;;17.35;77.48;100909.81;6163526;23;20070;-78
2021/08/14 06:19:59;;;;;;;2.53;2.00;;;;;;;17.48;77.25;100897.19;6191875;23;20009;-77
2021/08/14 06:22:31;;;;;;;1.63;1.52;;;;;;;17.54;77.27;100890.44;6165975;23;20016;-77
2021/08/14 06:24:56;;;;;;;1.70;1.60;;;;;;;17.71;76.67;100906.47;6167475;23;20008;-77
2021/08/14 06:28:01;;;;;;;1.80;1.55;;;;;;;17.80;76.68;100890.00;6138447;23;20055;-76
2021/08/14 06:30:42;;;;;;;4.60;3.22;;;;;;;17.90;75.66;100898.16;6194752;23;20056;-76
2021/08/14 06:33:08;;;;;;;3.92;3.05;;;;;;;17.91;75.46;100885.94;6170550;23;20008;-74
2021/08/14 06:35:58;;;;;;;1.77;1.67;;;;;;;18.10;75.64;100902.47;6143917;23;20379;-73
2021/08/14 06:44:57;;;;;;;5.22;2.85;;;;;;;18.30;74.79;100895.75;6204625;23;20025;-74
2021/08/14 06:47:25;;;;;;;1.90;1.80;;;;;;;18.35;75.18;100899.53;6205652;23;19992;-74
2021/08/14 06:49:50;;;;;;;3.67;3.20;;;;;;;18.35;74.62;100891.25;6174231;23;20005;-74
2021/08/14 06:52:16;;;;;;;7.22;3.15;;;;;;;18.45;74.48;100907.66;6202820;23;20021;-72
2021/08/14 06:54:41;;;;;;;6.57;2.60;;;;;;;18.49;74.56;100909.50;6192724;23;20023;-74
2021/08/14 06:57:07;;;;;;;9.05;2.28;;;;;;;18.58;74.21;100895.75;6166522;23;20077;-74
2021/08/14 06:59:32;;;;;;;4.75;2.70;;;;;;;18.62;73.55;100902.31;6140191;23;20015;-73
2021/08/14 07:02:01;;;;;;;2.67;2.47;;;;;;;18.60;73.76;100903.75;6164680;23;20428;-74
2021/08/14 07:04:32;;;;;;;4.65;3.15;;;;;;;18.58;73.51;100890.19;6168103;23;20095;-72
2021/08/14 07:07:02;;;;;;;5.82;3.70;;;;;;;18.56;73.77;100891.63;6136942;23;20019;-73
2021/08/14 07:09:40;;;;;;;2.00;1.90;;;;;;;18.73;73.49;100899.31;6190788;23;20435;-75
2021/08/14 07:13:02;;;;;;;6.10;2.40;;;;;;;18.96;72.58;100911.31;6188628;23;20082;-74
2021/08/14 07:21:12;;;;;;;4.15;2.50;;;;;;;19.05;71.93;100911.41;6193633;23;20259;-74
2021/08/14 07:23:38;;;;;;;2.83;2.50;;;;;;;19.18;71.38;100913.31;6193705;23;20008;-74
2021/08/14 07:26:04;;;;;;;7.15;3.30;;;;;;;19.25;71.45;100913.72;6165280;23;20012;-75
2021/08/14 07:28:29;;;;;;;3.00;2.70;;;;;;;19.35;71.54;100907.13;6194463;23;21031;-75
2021/08/14 07:30:55;;;;;;;2.28;1.83;;;;;;;19.47;71.20;100906.56;6192054;23;20019;-74
2021/08/14 07:33:21;;;;;;;2.28;2.05;;;;;;;19.63;71.38;100905.03;6168243;23;20005;-75
2021/08/14 07:35:47;;;;;;;4.28;2.35;;;;;;;19.80;70.47;100906.31;6166331;23;20009;-75
2021/08/14 07:38:15;;;;;;;1.83;1.63;;;;;;;19.96;70.21;100899.25;6145482;23;20048;-78
2021/08/14 07:40:44;;;;;;;2.05;1.85;;;;;;;20.19;70.06;100910.28;6142522;23;20021;-78
2021/08/14 07:43:12;;;;;;;5.30;2.55;;;;;;;20.32;69.42;100906.56;6170505;23;20007;-79
2021/08/14 07:45:37;;;;;;;4.68;2.40;;;;;;;20.43;69.07;100917.41;6193439;23;20005;-74
2021/08/14 07:48:52;;;;;;;5.00;2.42;;;;;;;20.62;69.24;100917.97;6167173;23;20032;-77
2021/08/14 07:51:17;;;;;;;2.97;2.25;;;;;;;20.54;67.84;100924.31;6161538;23;20379;-75
2021/08/14 07:53:43;;;;;;;4.00;2.28;;;;;;;20.45;67.86;100904.84;6193114;23;20035;-77
2021/08/14 07:56:08;;;;;;;4.05;2.63;;;;;;;20.50;67.53;100912.19;6191990;23;20379;-76
2021/08/14 07:58:34;;;;;;;5.97;3.10;;;;;;;20.42;66.92;100904.66;6169432;23;20001;-77
2021/08/14 08:01:00;;;;;;;7.15;3.08;;;;;;;20.40;66.85;100908.59;6195271;23;20008;-78
2021/08/14 08:03:25;;;;;;;9.05;3.50;;;;;;;20.51;66.45;100920.22;6170212;23;20004;-78
2021/08/14 08:05:51;;;;;;;6.53;3.38;;;;;;;20.48;65.40;100908.94;6120776;23;20012;-78
2021/08/14 08:08:16;;;;;;;4.15;3.10;;;;;;;20.51;64.97;100914.66;6163763;23;20016;-77
2021/08/14 08:10:42;;;;;;;6.07;3.67;;;;;;;20.58;65.29;100914.19;6191516;23;20005;-77
2021/08/14 08:13:10;;;;;;;5.32;3.00;;;;;;;20.61;65.47;100916.31;6170150;23;20013;-76
2021/08/14 08:15:36;;;;;;;3.60;3.30;;;;;;;20.72;64.92;100914.94;6166287;23;20052;-76
2021/08/14 08:18:01;;;;;;;5.65;3.97;;;;;;;20.70;64.37;100910.81;6192672;23;20009;-74
2021/08/14 08:21:04;;;;;;;3.28;2.97;;;;;;;20.74;64.22;100900.72;6143098;23;20021;-75
2021/08/14 08:24:21;;;;;;;4.38;2.55;;;;;;;21.06;64.28;100907.78;6154057;23;20009;-74
2021/08/14 08:26:47;;;;;;;7.03;3.42;;;;;;;21.15;63.00;100898.66;6148792;23;20487;-76
2021/08/14 08:29:12;;;;;;;10.18;4.00;;;;;;;21.21;61.47;100914.03;6157591;23;20006;-75
2021/08/14 08:31:42;;;;;;;6.20;3.60;;;;;;;21.30;61.23;100906.47;6088151;23;20511;-77
2021/08/14 08:34:07;;;;;;;5.82;3.20;;;;;;;21.38;61.19;100900.13;6136559;23;20006;-78
2021/08/14 08:36:33;;;;;;;5.60;3.13;;;;;;;21.45;61.01;100908.78;6135898;23;20009;-75
2021/08/14 08:39:01;;;;;;;6.45;3.58;;;;;;;21.60;61.19;100906.69;6132876;23;20016;-74
2021/08/14 08:41:33;;;;;;;9.00;3.47;;;;;;;21.60;60.03;100898.34;6138491;23;20009;-79
2021/08/14 08:43:59;;;;;;;8.50;3.35;;;;;;;21.67;59.91;100909.78;6140115;23;20013;-79
2021/08/14 08:46:33;;;;;;;13.48;3.90;;;;;;;21.62;59.46;100912.72;6117843;23;20013;-78
2021/08/14 08:49:01;;;;;;;6.45;3.45;;;;;;;21.55;60.19;100902.09;6139495;23;20413;-78
2021/08/14 08:51:32;;;;;;;7.30;3.75;;;;;;;21.61;59.62;100908.28;6138101;23;20009;-78
2021/08/14 08:53:59;;;;;;;4.20;3.25;;;;;;;21.64;59.38;100910.44;6138331;23;20009;-75
2021/08/14 08:56:24;;;;;;;8.18;3.65;;;;;;;21.55;59.01;100913.22;6159261;23;20005;-75
2021/08/14 08:58:50;;;;;;;6.85;4.07;;;;;;;21.44;58.90;100912.69;6106427;23;20032;-75
2021/08/14 09:01:16;;;;;;;4.50;3.05;;;;;;;21.41;58.79;100905.00;6132070;23;20032;-74
2021/08/14 09:03:41;;;;;;;4.95;3.17;;;;;;;21.44;59.50;100901.56;6133030;23;20037;-75
2021/08/14 09:06:07;;;;;;;4.30;3.42;;;;;;;21.57;58.96;100899.00;6159609;23;20027;-75
2021/08/14 09:08:33;;;;;;;6.47;3.30;;;;;;;21.65;58.27;100906.50;6156960;23;20005;-75
2021/08/14 09:11:12;;;;;;;10.60;3.88;;;;;;;21.79;58.51;100896.00;6137523;23;20037;-75
2021/08/14 09:13:41;;;;;;;4.80;3.25;;;;;;;21.89;58.59;100894.00;6136997;23;20005;-75
2021/08/14 09:16:30;;;;;;;7.75;3.45;;;;;;;21.99;57.46;100893.66;6157241;23;20005;-76
2021/08/14 09:22:05;;;;;;;;;;;;;;;;;;;;;
2021/08/14 09:24:36;;;;;;;7.43;3.70;;;;;;;22.57;56.68;100896.06;6194418;23;20084;-75
2021/08/14 09:27:06;;;;;;;8.10;3.72;;;;;;;22.83;55.77;100893.91;6218329;23;20004;-74
2021/08/14 09:29:36;;;;;;;3.15;2.90;;;;;;;23.06;55.47;100890.81;6190775;23;20079;-74
2021/08/14 09:32:08;;;;;;;6.95;3.67;;;;;;;23.07;54.66;100881.31;6191051;23;20008;-73
2021/08/14 09:34:38;;;;;;;5.95;3.08;;;;;;;23.15;53.20;100899.97;6218558;23;20013;-73
2021/08/14 09:37:04;;;;;;;5.10;2.83;;;;;;;22.83;52.58;100909.84;6191120;23;20004;-74
2021/08/14 09:39:32;;;;;;;5.53;4.00;;;;;;;22.53;53.41;100893.16;6223211;23;20001;-74
2021/08/14 09:42:02;;;;;;;4.53;3.00;;;;;;;22.35;54.27;100899.94;6226053;23;20383;-74
2021/08/14 09:44:27;;;;;;;9.07;4.22;;;;;;;22.18;54.14;100889.66;6224658;23;20043;-74
2021/08/14 09:46:52;;;;;;;5.22;3.50;;;;;;;22.04;55.20;100890.69;6174149;23;20009;-75
2021/08/14 09:49:18;;;;;;;3.90;3.00;;;;;;;21.93;55.33;100886.63;6200830;23;20094;-74
2021/08/14 09:51:46;;;;;;;5.53;3.55;;;;;;;21.89;55.18;100888.44;6177863;23;20019;-74
2021/08/14 09:54:11;;;;;;;4.78;2.78;;;;;;;21.93;56.11;100883.84;6201581;23;20035;-74
2021/08/14 09:56:37;;;;;;;5.05;2.97;;;;;;;21.97;56.08;100885.63;6191318;23;20009;-72
2021/08/14 09:59:05;;;;;;;3.75;2.50;;;;;;;22.05;56.08;100875.63;6193378;23;20415;-75
2021/08/14 10:01:35;;;;;;;2.75;2.55;;;;;;;22.26;56.30;100880.44;6195637;23;20008;-74
2021/08/14 10:04:04;;;;;;;6.70;2.50;;;;;;;22.53;56.09;100884.78;6220027;23;20069;-75
2021/08/14 10:06:30;;;;;;;2.65;2.45;;;;;;;22.67;55.92;100885.31;6218809;23;20011;-74
2021/08/14 10:08:56;;;;;;;5.60;2.80;;;;;;;22.91;54.98;100877.47;6193268;23;20360;-75
2021/08/14 10:11:22;;;;;;;2.58;2.38;;;;;;;23.15;54.30;100877.66;6195145;23;20008;-76
2021/08/14 10:13:51;;;;;;;3.55;3.22;;;;;;;23.37;53.23;100872.88;6193452;23;20012;-74
2021/08/14 10:16:18;;;;;;;4.00;2.97;;;;;;;23.51;52.43;100876.19;6193998;23;20031;-76
2021/08/14 10:18:56;;;;;;;3.65;2.13;;;;;;;23.72;53.02;100878.13;6192575;23;20087;-76
2021/08/14 10:21:27;;;;;;;5.20;2.33;;;;;;;24.01;52.59;100867.97;6171977;23;20037;-75
2021/08/14 10:23:58;;;;;;;2.33;2.17;;;;;;;24.34;51.25;100869.84;6220426;23;20453;-76
2021/08/14 10:26:34;;;;;;;7.55;2.60;;;;;;;24.37;49.83;100860.75;6224530;23;20000;-76
2021/08/14 10:29:04;;;;;;;4.78;2.60;;;;;;;24.29;49.03;100862.50;6169399;23;20017;-75
2021/08/14 10:31:30;;;;;;;3.10;2.28;;;;;;;24.17;48.90;100871.72;6222076;23;20001;-74
2021/08/14 10:34:19;;;;;;;2.35;2.15;;;;;;;24.23;49.06;100863.91;6218952;23;20001;-77
2021/08/14 10:36:49;;;;;;;5.93;2.45;;;;;;;24.43;48.61;100872.53;6197948;23;20008;-75
2021/08/14 10:39:53;;;;;;;4.80;2.33;;;;;;;24.82;48.55;100862.59;6215156;23;20710;-74
2021/08/14 10:42:53;;;;;;;7.13;2.47;;;;;;;25.50;48.33;100858.22;6219620;23;20000;-76
2021/08/14 10:45:53;;;;;;;3.35;1.98;;;;;;;26.36;45.57;100856.06;6219175;23;20007;-77
2021/08/14 10:55:04;;;;;;;;;;;;;;;;;;;;;
2021/08/14 10:58:23;;;;;;;4.30;2.80;;;;;;;27.39;40.35;100864.34;6220096;23;20035;-75
2021/08/14 11:01:21;;;;;;;6.05;2.58;;;;;;;27.56;39.28;100863.09;6217956;23;20011;-73
2021/08/14 11:03:52;;;;;;;3.15;2.50;;;;;;;27.92;40.03;100863.72;6219696;23;20068;-74
2021/08/14 11:06:44;;;;;;;5.03;2.85;;;;;;;28.36;39.11;100872.56;6191698;23;20004;-76
2021/08/14 11:09:16;;;;;;;4.40;2.28;;;;;;;28.30;38.76;100882.50;6191646;23;20008;-72
2021/08/14 11:11:41;;;;;;;6.20;2.80;;;;;;;27.94;38.10;100862.19;6192856;23;20005;-75
2021/08/14 11:14:11;;;;;;;3.55;2.78;;;;;;;27.65;39.38;100856.03;6194238;23;19995;-75
2021/08/14 11:17:36;;;;;;;3.05;2.08;;;;;;;27.54;39.42;100866.28;6195286;23;20004;-78
2021/08/14 11:20:03;;;;;;;5.88;2.83;;;;;;;27.26;39.91;100867.31;6100070;23;20094;-75
2021/08/14 11:22:42;;;;;;;4.75;3.60;;;;;;;27.13;40.41;100857.38;6100419;23;20070;-73
2021/08/14 11:25:40;;;;;;;4.72;2.50;;;;;;;27.16;40.95;100856.63;6184532;23;20013;-74
2021/08/14 11:28:08;;;;;;;2.78;2.45;;;;;;;27.45;40.71;100868.47;6222121;23;20000;-74
2021/08/14 11:30:46;;;;;;;7.30;2.58;;;;;;;27.93;39.74;100874.59;6201428;23;20020;-74
2021/08/14 11:33:23;;;;;;;4.35;2.72;;;;;;;28.39;39.88;100854.91;6195444;23;20319;-75
2021/08/14 11:35:48;;;;;;;3.58;2.40;;;;;;;29.38;38.37;100853.09;6168939;23;20005;-74
2021/08/14 11:38:14;;;;;;;3.92;2.30;;;;;;;29.66;35.54;100860.22;6167683;23;20023;-74
2021/08/14 11:40:41;;;;;;;3.70;2.38;;;;;;;29.40;35.18;100852.69;6171529;23;20323;-73
2021/08/14 11:43:08;;;;;;;4.60;2.25;;;;;;;29.53;36.12;100854.06;6222075;23;20009;-74
2021/08/14 11:45:36;;;;;;;2.58;2.20;;;;;;;30.52;36.33;100857.38;6230426;23;20005;-75
2021/08/14 11:48:06;;;;;;;3.17;2.10;;;;;;;31.63;34.49;100851.44;6205173;23;20060;-74
2021/08/14 11:50:37;;;;;;;2.72;2.38;;;;;;;32.68;31.57;100855.09;6204718;23;20012;-74
2021/08/14 11:53:05;;;;;;;2.70;2.50;;;;;;;33.16;30.58;100844.41;6232812;23;20023;-73
2021/08/14 11:55:30;;;;;;;3.28;2.78;;;;;;;33.32;30.73;100849.63;6209625;23;20005;-74
2021/08/14 11:57:56;;;;;;;2.25;2.15;;;;;;;34.18;29.99;100843.34;6232818;23;20008;-74
2021/08/14 12:00:28;;;;;;;5.18;2.85;;;;;;;35.33;26.48;100834.84;6206275;23;19996;-72
2021/08/14 12:03:14;;;;;;;2.85;2.22;;;;;;;36.47;26.30;100843.56;6233182;23;20007;-74
2021/08/14 12:05:42;;;;;;;2.55;2.45;;;;;;;36.86;24.64;100835.50;6229975;23;20031;-72
2021/08/14 12:08:15;;;;;;;2.55;2.35;;;;;;;37.10;23.97;100835.41;6222730;23;19992;-72
2021/08/14 12:10:41;;;;;;;2.10;2.00;;;;;;;37.59;24.88;100821.28;6190943;23;20000;-73
2021/08/14 12:13:07;;;;;;;2.45;2.25;;;;;;;38.32;21.83;100829.69;6195233;23;20059;-74
2021/08/14 12:15:46;;;;;;;2.40;2.20;;;;;;;38.53;22.67;100830.34;6193053;23;20392;-74
2021/08/14 12:18:11;;;;;;;3.03;2.35;;;;;;;38.46;22.32;100821.97;6218923;23;20008;-74
2021/08/14 12:20:40;;;;;;;2.90;2.60;;;;;;;38.29;22.52;100824.03;6191423;23;20478;-73
2021/08/14 12:23:24;;;;;;;2.63;2.42;;;;;;;38.46;21.28;100821.97;6212987;23;20004;-75
2021/08/14 12:26:00;;;;;;;4.03;2.08;;;;;;;38.21;22.34;100823.44;6192345;23;20039;-74
2021/08/14 12:28:26;;;;;;;2.50;2.35;;;;;;;39.01;22.33;100822.84;6219545;23;20071;-73